createdAt,value
2024-05-09T00:01:48.814Z,97224.88
2024-05-09T00:04:37.316Z,97225.06
2024-05-09T00:07:22.600Z,97229.53
2024-05-09T00:10:11.834Z,97231.22
2024-05-09T00:13:03.596Z,97217.09
2024-05-09T00:15:50.940Z,97223.81
2024-05-09T00:18:36.275Z,97228.78
2024-05-09T00:21:21.502Z,97232.41
2024-05-09T00:24:06.769Z,97220.28
2024-05-09T00:26:54.661Z,97222.81
2024-05-09T00:29:42.900Z,97216.06
2024-05-09T00:32:28.369Z,97225.31
2024-05-09T00:35:13.581Z,97217.38
2024-05-09T00:37:58.812Z,97217.06
2024-05-09T00:40:53.501Z,97214.25
2024-05-09T00:43:39.156Z,97214.06
2024-05-09T00:46:28.068Z,97208.22
2024-05-09T00:49:23.899Z,97215.19
2024-05-09T00:52:09.621Z,97206.75
2024-05-09T00:54:57.738Z,97206.75
2024-05-09T00:57:42.908Z,97197.44
2024-05-09T01:00:35.948Z,97194.41
2024-05-09T01:03:25.264Z,97201.56
2024-05-09T01:06:12.772Z,97191.69
2024-05-09T01:08:58.169Z,97198.47
2024-05-09T01:11:46.772Z,97189.94
2024-05-09T01:14:37.331Z,97194.53
2024-05-09T01:17:39.252Z,97191.53
2024-05-09T01:20:39.660Z,97189.50
2024-05-09T01:23:32.461Z,97186.47
2024-05-09T01:26:20.375Z,97186.41
2024-05-09T01:29:09.216Z,97192.69
2024-05-09T01:31:55.107Z,97189.72
2024-05-09T01:34:40.673Z,97193.38
2024-05-09T01:37:26.272Z,97188.91
2024-05-09T01:40:22.106Z,97193.13
2024-05-09T01:43:11.643Z,97208.47
2024-05-09T01:45:57.254Z,97211.94
2024-05-09T01:48:42.607Z,97208.81
2024-05-09T01:51:28.137Z,97205.13
2024-05-09T01:54:14.588Z,97205.38
2024-05-09T01:57:00.181Z,97204.13
2024-05-09T01:59:45.595Z,97199.28
2024-05-09T02:02:30.599Z,97203.34
2024-05-09T02:05:16.150Z,97206.25
2024-05-09T02:08:04.806Z,97210.09
2024-05-09T02:10:50.601Z,97204.88
2024-05-09T02:13:36.260Z,97209.22
2024-05-09T02:16:21.411Z,97214.06
2024-05-09T02:19:10.034Z,97201.47
2024-05-09T02:21:55.612Z,97213.66
2024-05-09T02:24:40.834Z,97207.50
2024-05-09T02:27:26.248Z,97218.75
2024-05-09T02:30:18.801Z,97211.53
2024-05-09T02:33:13.222Z,97222.63
2024-05-09T02:36:02.616Z,97213.25
2024-05-09T02:38:49.900Z,97223.59
2024-05-09T02:41:38.230Z,97213.75
2024-05-09T02:44:23.721Z,97213.13
2024-05-09T02:47:15.484Z,97210.78
2024-05-09T02:50:00.910Z,97212.22
2024-05-09T02:52:46.378Z,97202.84
2024-05-09T02:55:31.910Z,97206.16
2024-05-09T02:58:17.066Z,97201.91
2024-05-09T03:01:03.487Z,97198.34
2024-05-09T03:03:49.164Z,97197.78
2024-05-09T03:06:34.130Z,97201.31
2024-05-09T03:09:21.476Z,97193.72
2024-05-09T03:12:07.038Z,97202.84
2024-05-09T03:14:56.517Z,97194.38
2024-05-09T03:17:42.150Z,97199.44
2024-05-09T03:20:33.296Z,97198.69
2024-05-09T03:23:20.479Z,97200.53
2024-05-09T03:26:05.747Z,97195.19
2024-05-09T03:28:54.448Z,97214.75
2024-05-09T03:31:42.951Z,97209.69
2024-05-09T03:34:28.306Z,97215.63
2024-05-09T03:37:13.671Z,97211.28
2024-05-09T03:40:09.134Z,97212.47
2024-05-09T03:43:00.478Z,97218.38
2024-05-09T03:45:46.150Z,97214.72
2024-05-09T03:48:31.349Z,97214.84
2024-05-09T03:51:16.728Z,97216.91
2024-05-09T03:54:03.833Z,97217.38
2024-05-09T03:56:56.602Z,97224.03
2024-05-09T03:59:49.755Z,97226.50
2024-05-09T04:02:38.053Z,97227.50
2024-05-09T04:08:22.456Z,97227.69
2024-05-09T04:11:14.120Z,97232.69
2024-05-09T04:13:59.312Z,97229.66
2024-05-09T04:16:47.674Z,97240.97
2024-05-09T04:19:33.027Z,97241.56
2024-05-09T04:22:18.145Z,97239.94
2024-05-09T04:25:07.954Z,97240.16
2024-05-09T04:27:53.705Z,97240.16
2024-05-09T04:30:41.112Z,97245.22
2024-05-09T04:33:28.722Z,97243.75
2024-05-09T04:36:16.891Z,97245.25
2024-05-09T04:39:03.297Z,97248.34
2024-05-09T04:41:49.831Z,97247.97
2024-05-09T04:44:35.094Z,97254.22
2024-05-09T04:47:20.399Z,97243.50
2024-05-09T04:50:05.753Z,97237.75
2024-05-09T04:52:51.073Z,97243.91
2024-05-09T04:55:36.517Z,97245.53
2024-05-09T04:58:21.614Z,97236.22
2024-05-09T05:01:11.182Z,97245.59
2024-05-09T05:04:04.811Z,97245.28
2024-05-09T05:06:50.087Z,97251.13
2024-05-09T05:09:36.608Z,97249.63
2024-05-09T05:12:22.078Z,97252.56
2024-05-09T05:15:07.312Z,97253.00
2024-05-09T05:17:52.488Z,97245.53
2024-05-09T05:20:37.507Z,97240.16
2024-05-09T05:23:22.994Z,97249.13
2024-05-09T05:26:08.431Z,97254.56
2024-05-09T05:28:53.778Z,97260.34
2024-05-09T05:31:42.188Z,97260.28
2024-05-09T05:34:27.439Z,97259.06
2024-05-09T05:37:13.827Z,97262.41
2024-05-09T05:39:59.184Z,97258.16
2024-05-09T05:42:44.517Z,97258.75
2024-05-09T05:45:31.270Z,97257.50
2024-05-09T05:48:17.209Z,97257.53
2024-05-09T05:51:04.610Z,97253.44
2024-05-09T05:53:50.348Z,97259.00
2024-05-09T05:56:35.729Z,97255.09
2024-05-09T05:59:21.830Z,97249.59
2024-05-09T06:02:07.094Z,97259.22
2024-05-09T06:04:52.298Z,97260.41
2024-05-09T06:07:37.918Z,97253.78
2024-05-09T06:10:29.633Z,97249.75
2024-05-09T06:13:20.233Z,97255.66
2024-05-09T06:16:05.534Z,97263.09
2024-05-09T06:18:55.528Z,97253.72
2024-05-09T06:21:45.996Z,97260.81
2024-05-09T06:24:31.380Z,97254.44
2024-05-09T06:27:19.993Z,97257.16
2024-05-09T06:30:08.232Z,97263.59
2024-05-09T06:33:04.750Z,97269.13
2024-05-09T06:35:50.461Z,97269.00
2024-05-09T06:38:37.404Z,97282.66
2024-05-09T06:41:22.868Z,97275.47
2024-05-09T06:44:08.195Z,97269.94
2024-05-09T06:46:54.622Z,97274.69
2024-05-09T06:49:44.255Z,97268.50
2024-05-09T06:52:31.422Z,97281.03
2024-05-09T06:55:16.859Z,97274.38
2024-05-09T06:58:02.197Z,97280.53
2024-05-09T07:00:47.693Z,97266.41
2024-05-09T07:03:32.836Z,97268.16
2024-05-09T07:06:20.370Z,97264.09
2024-05-09T07:09:05.885Z,97269.50
2024-05-09T07:11:53.612Z,97262.22
2024-05-09T07:14:38.851Z,97254.22
2024-05-09T07:17:31.515Z,97267.66
2024-05-09T07:20:23.664Z,97253.56
2024-05-09T07:23:20.140Z,97246.44
2024-05-09T07:26:05.465Z,97252.31
2024-05-09T07:28:50.897Z,97248.03
2024-05-09T07:31:38.178Z,97242.91
2024-05-09T07:34:24.294Z,97228.72
2024-05-09T07:37:10.443Z,97243.78
2024-05-09T07:39:57.389Z,97246.25
2024-05-09T07:42:43.951Z,97244.72
2024-05-09T07:45:47.562Z,97245.84
2024-05-09T07:53:14.224Z,97247.28
2024-05-09T07:54:44.307Z,97246.00
2024-05-09T07:57:29.462Z,97244.72
2024-05-09T08:00:20.368Z,97246.97
2024-05-09T08:06:17.885Z,97237.78
2024-05-09T08:09:21.367Z,97226.94
2024-05-09T08:15:12.723Z,97233.63
2024-05-09T08:18:01.386Z,97233.13
2024-05-09T08:20:57.015Z,97216.66
2024-05-09T08:23:49.318Z,97220.13
2024-05-09T08:26:47.127Z,97221.97
2024-05-09T08:32:35.943Z,97215.72
2024-05-09T08:38:40.502Z,97220.09
2024-05-09T08:44:48.142Z,97216.72
2024-05-09T08:50:38.553Z,97214.28
2024-05-09T08:53:25.385Z,97201.69
2024-05-09T08:56:14.872Z,97210.38
2024-05-09T08:59:00.726Z,97205.81
2024-05-09T09:04:48.738Z,97219.47
2024-05-09T09:10:43.081Z,97219.91
2024-05-09T09:13:40.355Z,97226.69
2024-05-09T09:16:25.800Z,97217.97
2024-05-09T09:22:26.072Z,97221.16
2024-05-09T09:31:28.773Z,97213.44
2024-05-09T09:34:26.818Z,97210.28
2024-05-09T09:37:12.074Z,97220.34
2024-05-09T09:40:32.073Z,97222.81
2024-05-09T09:43:12.055Z,97220.41
2024-05-09T09:45:57.643Z,97211.88
2024-05-09T09:48:43.419Z,97217.16
2024-05-09T09:51:54.575Z,97215.69
2024-05-09T09:54:49.788Z,97228.25
2024-05-09T09:57:56.822Z,97225.09
2024-05-09T10:00:49.910Z,97217.75
2024-05-09T10:03:39.345Z,97217.81
2024-05-09T10:06:38.443Z,97210.06
2024-05-09T10:22:12.561Z,97181.75
2024-05-09T10:25:23.305Z,97183.78
2024-05-09T10:29:15.045Z,97186.44
2024-05-09T10:31:27.706Z,97186.47
2024-05-09T10:37:23.072Z,97189.72
2024-05-09T10:40:17.259Z,97185.88
2024-05-09T10:46:06.918Z,97186.03
2024-05-09T10:48:52.404Z,97184.41
2024-05-09T10:51:38.615Z,97191.31
2024-05-09T10:54:23.899Z,97185.47
2024-05-09T10:57:09.123Z,97188.16
2024-05-09T10:59:54.468Z,97184.13
2024-05-09T11:02:39.947Z,97187.91
2024-05-09T11:05:25.474Z,97178.19
2024-05-09T11:08:10.751Z,97180.38
2024-05-09T11:10:56.955Z,97175.34
2024-05-09T11:13:42.370Z,97169.84
2024-05-09T11:16:27.765Z,97164.25
2024-05-09T11:19:13.113Z,97158.22
2024-05-09T11:21:58.846Z,97158.22
2024-05-09T11:24:44.081Z,97157.16
2024-05-09T11:27:29.600Z,97152.88
2024-05-09T11:30:24.175Z,97155.28
2024-05-09T11:33:15.224Z,97153.09
2024-05-09T11:36:03.543Z,97148.91
2024-05-09T11:38:48.558Z,97153.97
2024-05-09T11:41:33.857Z,97153.69
2024-05-09T11:44:19.052Z,97148.06
2024-05-09T11:47:04.335Z,97154.66
2024-05-09T11:49:50.095Z,97142.47
2024-05-09T11:52:54.095Z,97138.19
2024-05-09T11:58:44.074Z,97136.88
2024-05-09T12:01:32.527Z,97140.59
2024-05-09T12:04:18.379Z,97140.84
2024-05-09T12:07:04.311Z,97140.25
2024-05-09T12:09:50.758Z,97128.31
2024-05-09T12:12:38.932Z,97125.34
2024-05-09T12:15:27.589Z,97129.63
2024-05-09T12:18:20.922Z,97129.53
2024-05-09T12:21:07.676Z,97122.28
2024-05-09T12:23:56.977Z,97113.28
2024-05-09T12:26:42.148Z,97119.09
2024-05-09T12:29:30.822Z,97115.44
2024-05-09T12:32:20.463Z,97113.78
2024-05-09T12:35:07.780Z,97112.00
2024-05-09T12:37:54.455Z,97107.00
2024-05-09T12:40:43.702Z,97103.72
2024-05-09T12:46:27.893Z,97091.78
2024-05-09T12:49:22.748Z,97100.47
2024-05-09T12:52:25.610Z,97099.09
2024-05-09T12:55:22.891Z,97087.22
2024-05-09T12:58:18.592Z,97090.66
2024-05-09T13:01:03.906Z,97090.69
2024-05-09T13:03:49.493Z,97092.72
2024-05-09T13:06:37.920Z,97083.78
2024-05-09T13:09:29.473Z,97081.72
2024-05-09T13:12:17.723Z,97076.41
2024-05-09T13:15:13.019Z,97069.84
2024-05-09T13:18:02.943Z,97079.78
2024-05-09T13:20:51.015Z,97080.97
2024-05-09T13:26:46.266Z,97076.34
2024-05-09T13:32:48.575Z,97072.94
2024-05-09T13:35:34.030Z,97067.34
2024-05-09T13:38:29.894Z,97066.81
2024-05-09T13:44:30.885Z,97059.94
2024-05-09T13:50:58.671Z,97056.56
2024-05-09T13:53:36.803Z,97056.59
2024-05-09T14:05:39.580Z,97039.84
2024-05-09T14:08:34.965Z,97043.44
2024-05-09T14:11:32.078Z,97054.00
2024-05-09T14:14:28.647Z,97047.44
2024-05-09T14:17:24.726Z,97044.56
2024-05-09T14:23:24.382Z,97033.34
2024-05-09T14:26:13.145Z,97040.69
2024-05-09T14:32:15.789Z,97036.63
2024-05-09T14:35:14.009Z,97030.19
2024-05-09T14:38:17.476Z,97032.44
2024-05-09T14:41:08.552Z,97033.66
2024-05-09T14:50:19.621Z,97032.00
2024-05-09T14:53:52.150Z,97034.25
2024-05-09T14:59:53.785Z,97028.59
2024-05-09T15:06:09.326Z,97022.84
2024-05-09T15:08:56.317Z,97021.69
2024-05-09T15:11:53.302Z,97022.97
2024-05-09T15:15:09.151Z,97014.97
2024-05-09T15:18:00.254Z,97012.28
2024-05-09T15:20:48.557Z,97023.44
2024-05-09T15:23:48.603Z,97015.13
2024-05-09T15:26:43.463Z,97017.72
2024-05-09T15:29:31.475Z,97013.97
2024-05-09T15:41:39.054Z,97013.38
2024-05-09T15:44:31.053Z,97000.88
2024-05-09T15:47:23.902Z,97005.72
2024-05-09T15:50:17.099Z,97007.66
2024-05-09T15:53:08.221Z,97012.22
2024-05-09T15:59:00.973Z,97003.50
2024-05-09T16:01:46.268Z,97014.50
2024-05-09T16:04:35.339Z,97006.81
2024-05-09T16:07:24.725Z,97002.44
2024-05-09T16:10:13.199Z,97000.56
2024-05-09T16:13:04.888Z,96990.97
2024-05-09T16:15:50.419Z,96997.06
2024-05-09T16:18:37.690Z,96995.72
2024-05-09T16:21:34.464Z,96987.84
2024-05-09T16:24:19.992Z,96992.13
2024-05-09T16:27:05.363Z,96992.25
2024-05-09T16:29:50.731Z,96990.47
2024-05-09T16:32:36.223Z,96990.44
2024-05-09T16:35:21.267Z,96991.81
2024-05-09T16:38:06.549Z,96986.13
2024-05-09T16:40:59.562Z,96993.19
2024-05-09T16:43:44.891Z,96989.06
2024-05-09T16:46:30.410Z,96989.19
2024-05-09T16:49:16.011Z,96984.75
2024-05-09T16:52:01.632Z,96989.47
2024-05-09T16:54:46.860Z,96988.94
2024-05-09T16:57:31.893Z,96986.59
2024-05-09T17:00:25.589Z,96995.97
2024-05-09T17:03:17.382Z,96983.19
2024-05-09T17:06:02.997Z,96983.28
2024-05-09T17:08:48.603Z,96980.88
2024-05-09T17:11:41.384Z,96982.06
2024-05-09T17:14:29.225Z,96983.88
2024-05-09T17:17:14.893Z,96983.38
2024-05-09T17:23:00.522Z,96982.38
2024-05-09T17:32:00.991Z,96995.22
2024-05-09T17:34:46.356Z,96989.84
2024-05-09T17:37:33.137Z,96985.97
2024-05-09T17:40:27.903Z,96981.00
2024-05-09T17:43:19.130Z,96990.50
2024-05-09T17:46:13.674Z,96987.91
2024-05-09T17:49:01.342Z,96991.97
2024-05-09T17:51:47.426Z,96988.38
2024-05-09T17:54:34.500Z,96980.78
2024-05-09T17:57:20.012Z,96997.19
2024-05-09T18:00:17.441Z,96995.25
2024-05-09T18:03:06.738Z,96983.97
2024-05-09T18:05:57.854Z,97002.88
2024-05-09T18:08:43.323Z,96994.88
2024-05-09T18:11:31.806Z,96995.91
2024-05-09T18:14:17.058Z,96997.50
2024-05-09T18:17:02.211Z,97000.75
2024-05-09T18:19:47.469Z,96992.13
2024-05-09T18:22:35.456Z,97003.25
2024-05-09T18:25:20.718Z,96992.66
2024-05-09T18:28:13.573Z,96994.88
2024-05-09T18:31:02.809Z,96990.41
2024-05-09T18:33:51.223Z,97001.38
2024-05-09T18:36:37.178Z,96993.88
2024-05-09T18:39:25.674Z,96998.25
2024-05-09T18:42:10.684Z,96990.44
2024-05-09T18:45:00.431Z,96984.94
2024-05-09T18:47:46.069Z,96993.88
2024-05-09T18:50:37.292Z,96990.81
2024-05-09T18:53:25.143Z,97000.00
2024-05-09T18:56:10.631Z,97005.88
2024-05-09T18:58:55.775Z,96994.75
2024-05-09T19:01:44.153Z,97000.91
2024-05-09T19:04:29.421Z,97001.38
2024-05-09T19:07:15.078Z,97006.72
2024-05-09T19:10:00.491Z,97014.84
2024-05-09T19:12:57.223Z,97021.47
2024-05-09T19:15:43.389Z,97011.03
2024-05-09T19:18:29.416Z,97006.97
2024-05-09T19:21:14.935Z,97019.91
2024-05-09T19:24:01.626Z,97017.75
2024-05-09T19:26:49.267Z,97010.47
2024-05-09T19:29:37.869Z,97015.03
2024-05-09T19:32:27.715Z,97022.22
2024-05-09T19:35:13.152Z,97018.53
2024-05-09T19:38:00.911Z,97018.38
2024-05-09T19:40:46.621Z,97025.78
2024-05-09T19:43:34.601Z,97032.28
2024-05-09T19:46:21.087Z,97025.09
2024-05-09T19:49:06.920Z,97028.38
2024-05-09T19:51:52.610Z,97035.25
2024-05-09T19:54:43.300Z,97029.88
2024-05-09T19:57:28.530Z,97032.53
2024-05-09T20:00:22.236Z,97034.16
2024-05-09T20:03:17.989Z,97032.84
2024-05-09T20:06:09.659Z,97034.81
2024-05-09T20:08:56.508Z,97035.06
2024-05-09T20:11:50.376Z,97035.09
2024-05-09T20:14:39.594Z,97033.97
2024-05-09T20:17:25.103Z,97033.47
2024-05-09T20:20:20.126Z,97031.31
2024-05-09T20:23:15.614Z,97036.06
2024-05-09T20:26:00.910Z,97035.03
2024-05-09T20:28:51.496Z,97036.66
2024-05-09T20:31:38.741Z,97051.34
2024-05-09T20:34:25.410Z,97040.16
2024-05-09T20:37:18.158Z,97046.28
2024-05-09T20:40:05.168Z,97039.59
2024-05-09T20:42:53.330Z,97048.59
2024-05-09T20:45:39.960Z,97034.47
2024-05-09T20:48:25.970Z,97050.13
2024-05-09T20:51:12.511Z,97041.66
2024-05-09T20:54:00.539Z,97039.19
2024-05-09T20:56:45.802Z,97032.81
2024-05-09T20:59:32.416Z,97037.72
2024-05-09T21:02:18.290Z,97041.75
2024-05-09T21:05:03.716Z,97038.09
2024-05-09T21:07:48.821Z,97027.22
2024-05-09T21:10:34.795Z,97030.22
2024-05-09T21:13:25.948Z,97037.28
2024-05-09T21:16:11.853Z,97028.00
2024-05-09T21:18:57.421Z,97031.03
2024-05-09T21:21:42.643Z,97038.00
2024-05-09T21:24:27.923Z,97038.50
2024-05-09T21:27:13.515Z,97035.84
2024-05-09T21:29:58.893Z,97041.41
2024-05-09T21:32:44.567Z,97048.69
2024-05-09T21:35:30.027Z,97038.50
2024-05-09T21:38:15.029Z,97044.16
2024-05-09T21:41:02.626Z,97036.41
2024-05-09T21:43:48.199Z,97040.94
2024-05-09T21:46:35.883Z,97038.53
2024-05-09T21:49:23.705Z,97039.06
2024-05-09T21:52:08.885Z,97041.22
2024-05-09T21:54:54.013Z,97039.84
2024-05-09T21:57:45.745Z,97045.47
2024-05-09T22:00:38.225Z,97045.41
2024-05-09T22:03:25.135Z,97042.41
2024-05-09T22:06:11.788Z,97040.25
2024-05-09T22:08:57.233Z,97041.84
2024-05-09T22:11:48.129Z,97040.16
2024-05-09T22:14:41.247Z,97035.22
2024-05-09T22:17:39.527Z,97040.38
2024-05-09T22:20:36.548Z,97041.00
2024-05-09T22:23:24.543Z,97042.53
2024-05-09T22:26:09.839Z,97047.88
2024-05-09T22:28:59.453Z,97044.88
2024-05-09T22:31:46.305Z,97045.25
2024-05-09T22:34:39.456Z,97040.31
2024-05-09T22:40:33.047Z,97055.97
2024-05-09T22:43:27.925Z,97051.94
2024-05-09T22:46:13.205Z,97054.03
2024-05-09T22:49:00.729Z,97051.59
2024-05-09T22:51:48.932Z,97050.09
2024-05-09T22:54:34.187Z,97051.28
2024-05-09T22:57:20.769Z,97055.16
2024-05-09T23:00:12.402Z,97058.75
2024-05-09T23:02:57.459Z,97051.66
2024-05-09T23:05:42.680Z,97053.88
2024-05-09T23:08:28.585Z,97047.09
2024-05-09T23:11:14.291Z,97056.84
2024-05-09T23:13:59.771Z,97050.09
2024-05-09T23:16:45.554Z,97047.59
2024-05-09T23:19:31.296Z,97050.53
2024-05-09T23:22:16.815Z,97052.19
2024-05-09T23:25:02.004Z,97045.78
2024-05-09T23:27:47.826Z,97049.97
2024-05-09T23:30:37.868Z,97048.06
2024-05-09T23:33:29.919Z,97047.31
2024-05-09T23:36:17.628Z,97049.56
2024-05-09T23:39:05.823Z,97045.41
2024-05-09T23:41:51.551Z,97045.53
2024-05-09T23:44:37.568Z,97046.06
2024-05-09T23:47:22.920Z,97048.13
2024-05-09T23:50:20.272Z,97037.16
2024-05-09T23:53:10.066Z,97049.06
2024-05-09T23:55:56.250Z,97031.00
2024-05-09T23:58:44.177Z,97043.59
